createdAt,value
2023-04-12T00:01:40.269Z,2.83
2023-04-12T00:06:48.511Z,3.13
2023-04-12T00:11:49.934Z,4.00
2023-04-12T00:16:51.507Z,3.30
2023-04-12T00:21:52.843Z,2.22
2023-04-12T00:26:54.178Z,2.40
2023-04-12T00:31:55.496Z,1.80
2023-04-12T00:36:56.754Z,1.83
2023-04-12T00:41:58.053Z,1.67
2023-04-12T00:47:00.081Z,1.60
2023-04-12T00:52:04.391Z,1.47
2023-04-12T00:57:05.808Z,1.20
2023-04-12T01:02:07.744Z,1.77
2023-04-12T01:07:18.534Z,1.63
2023-04-12T01:12:28.868Z,1.67
2023-04-12T01:17:31.365Z,1.50
2023-04-12T01:22:53.362Z,1.20
2023-04-12T01:27:57.406Z,1.37
2023-04-12T01:33:00.813Z,1.50
2023-04-12T01:38:03.193Z,1.42
2023-04-12T01:43:05.432Z,1.30
2023-04-12T01:48:07.905Z,1.27
2023-04-12T01:53:21.142Z,1.50
2023-04-12T01:58:22.590Z,1.25
2023-04-12T02:03:24.361Z,1.60
2023-04-12T02:08:26.096Z,1.17
2023-04-12T02:13:27.378Z,1.33
2023-04-12T02:18:28.889Z,1.70
2023-04-12T02:23:30.161Z,1.30
2023-04-12T02:28:31.467Z,1.10
2023-04-12T02:33:33.225Z,1.40
2023-04-12T02:38:34.520Z,1.60
2023-04-12T02:43:35.817Z,1.20
2023-04-12T02:48:37.106Z,1.33
2023-04-12T02:53:38.396Z,1.23
2023-04-12T02:58:39.655Z,1.43
2023-04-12T03:03:41.095Z,1.50
2023-04-12T03:08:42.929Z,1.37
2023-04-12T03:13:44.207Z,1.40
2023-04-12T03:18:45.506Z,1.20
2023-04-12T03:23:46.824Z,0.97
2023-04-12T03:28:48.169Z,1.38
2023-04-12T03:33:49.597Z,1.10
2023-04-12T03:38:50.862Z,1.70
2023-04-12T03:43:52.182Z,1.23
2023-04-12T03:48:53.564Z,1.33
2023-04-12T03:53:54.906Z,1.17
2023-04-12T03:58:56.506Z,1.80
2023-04-12T04:03:58.157Z,1.42
2023-04-12T04:08:59.851Z,1.60
2023-04-12T04:14:01.104Z,1.40
2023-04-12T04:19:02.404Z,1.10
2023-04-12T04:24:03.904Z,1.20
2023-04-12T04:29:05.265Z,1.27
2023-04-12T04:34:06.642Z,1.35
2023-04-12T04:39:07.976Z,1.20
2023-04-12T04:44:09.402Z,1.30
2023-04-12T04:49:10.707Z,1.60
2023-04-12T04:54:13.743Z,1.27
2023-04-12T04:59:15.005Z,1.20
2023-04-12T05:04:16.345Z,1.20
2023-04-12T05:09:17.750Z,1.30
2023-04-12T05:14:19.384Z,1.33
2023-04-12T05:19:21.900Z,1.33
2023-04-12T05:24:23.201Z,1.42
2023-04-12T05:29:24.532Z,1.70
2023-04-12T05:34:28.946Z,1.70
2023-04-12T05:39:30.829Z,1.43
2023-04-12T05:44:32.287Z,1.60
2023-04-12T05:49:33.584Z,1.35
2023-04-12T05:54:35.110Z,1.20
2023-04-12T05:59:36.418Z,1.20
2023-04-12T06:04:50.078Z,1.20
2023-04-12T06:09:52.409Z,1.27
2023-04-12T06:14:53.724Z,1.20
2023-04-12T06:19:55.093Z,1.10
2023-04-12T06:24:56.458Z,1.48
2023-04-12T06:29:57.877Z,1.27
2023-04-12T06:34:59.179Z,1.35
2023-04-12T06:40:00.677Z,1.20
2023-04-12T06:45:02.132Z,1.10
2023-04-12T06:50:03.784Z,1.27
2023-04-12T06:55:05.721Z,1.10
2023-04-12T07:00:10.216Z,1.25
2023-04-12T07:05:11.493Z,1.50
2023-04-12T07:10:12.895Z,1.30
2023-04-12T07:15:14.236Z,1.70
2023-04-12T07:20:15.531Z,1.10
2023-04-12T07:25:17.097Z,1.33
2023-04-12T07:30:18.636Z,1.50
2023-04-12T07:35:20.669Z,1.40
2023-04-12T07:40:21.985Z,2.45
2023-04-12T07:45:26.206Z,2.20
2023-04-12T07:50:27.489Z,1.60
2023-04-12T07:55:28.835Z,2.00
2023-04-12T08:00:32.514Z,1.40
2023-04-12T08:05:34.245Z,3.90
2023-04-12T08:10:36.801Z,1.80
2023-04-12T08:15:38.089Z,1.90
2023-04-12T08:20:40.556Z,2.08
2023-04-12T08:25:41.848Z,1.83
2023-04-12T08:30:43.617Z,1.60
2023-04-12T08:35:44.999Z,2.37
2023-04-12T08:40:47.234Z,2.30
2023-04-12T08:45:49.416Z,1.67
2023-04-12T08:50:50.854Z,2.50
2023-04-12T08:55:52.188Z,2.10
2023-04-12T09:00:53.548Z,1.93
2023-04-12T09:05:54.813Z,2.20
2023-04-12T09:10:56.311Z,2.10
2023-04-12T09:15:57.562Z,2.37
2023-04-12T09:21:08.681Z,2.03
2023-04-12T09:26:26.387Z,1.53
2023-04-12T09:31:27.779Z,1.60
2023-04-12T09:36:37.288Z,1.65
2023-04-12T09:41:38.620Z,1.60
2023-04-12T09:46:50.120Z,2.00
2023-04-12T09:51:52.658Z,1.40
2023-04-12T09:56:57.503Z,1.30
2023-04-12T10:01:59.292Z,1.40
2023-04-12T10:07:01.635Z,1.60
2023-04-12T10:12:05.696Z,1.65
2023-04-12T10:17:09.133Z,1.77
2023-04-12T10:22:10.815Z,1.38
2023-04-12T10:27:12.374Z,1.10
2023-04-12T10:32:23.766Z,1.40
2023-04-12T10:37:46.945Z,1.35
2023-04-12T10:42:48.480Z,1.20
2023-04-12T10:47:50.029Z,1.20
2023-04-12T10:53:09.904Z,1.15
2023-04-12T10:58:11.625Z,1.10
2023-04-12T11:03:13.980Z,0.80
2023-04-12T11:08:18.528Z,0.70
2023-04-12T11:13:20.253Z,0.73
2023-04-12T11:18:21.864Z,0.98
2023-04-12T11:23:23.735Z,0.80
2023-04-12T11:28:29.861Z,1.30
2023-04-12T11:33:41.415Z,0.82
2023-04-12T11:38:43.865Z,1.13
2023-04-12T11:43:45.965Z,0.70
2023-04-12T11:48:47.404Z,0.80
2023-04-12T11:53:52.321Z,0.70
2023-04-12T11:58:53.712Z,0.77
2023-04-12T12:03:55.765Z,0.70
2023-04-12T12:08:57.557Z,0.57
2023-04-12T12:13:59.333Z,1.05
2023-04-12T12:19:03.688Z,0.63
2023-04-12T12:24:05.092Z,0.70
2023-04-12T12:29:09.126Z,1.25
2023-04-12T12:34:12.094Z,0.60
2023-04-12T12:39:15.381Z,0.70
2023-04-12T12:44:16.747Z,0.70
2023-04-12T12:49:18.373Z,1.10
2023-04-12T12:54:32.125Z,0.83
2023-04-12T12:59:37.860Z,1.00
2023-04-12T13:04:39.286Z,0.90
2023-04-12T13:09:40.999Z,0.80
2023-04-12T13:14:42.485Z,0.65
2023-04-12T13:19:47.114Z,0.60
2023-04-12T13:24:48.499Z,0.87
2023-04-12T13:29:49.804Z,0.80
2023-04-12T13:34:51.473Z,0.80
2023-04-12T13:39:52.860Z,0.80
2023-04-12T13:44:54.190Z,1.20
2023-04-12T13:49:58.275Z,0.80
2023-04-12T13:54:59.703Z,0.60
2023-04-12T14:00:01.119Z,0.70
2023-04-12T14:05:02.660Z,1.00
2023-04-12T14:10:04.252Z,0.90
2023-04-12T14:15:06.030Z,0.85
2023-04-12T14:20:12.779Z,0.75
2023-04-12T14:25:16.988Z,0.90
2023-04-12T14:30:19.838Z,1.17
2023-04-12T14:35:21.143Z,0.70
2023-04-12T14:40:22.703Z,0.80
2023-04-12T14:45:24.022Z,1.00
2023-04-12T14:50:25.448Z,1.00
2023-04-12T14:55:27.116Z,1.10
2023-04-12T15:00:29.240Z,1.13
2023-04-12T15:05:30.924Z,0.90
2023-04-12T15:10:32.309Z,1.00
2023-04-12T15:15:33.567Z,0.70
2023-04-12T15:20:35.940Z,1.00
2023-04-12T15:25:37.218Z,0.90
2023-04-12T15:30:38.849Z,0.90
2023-04-12T15:35:40.201Z,1.10
2023-04-12T15:40:41.914Z,0.80
2023-04-12T15:45:43.225Z,0.73
2023-04-12T15:50:45.027Z,1.60
2023-04-12T15:55:47.182Z,0.97
2023-04-12T16:00:48.535Z,0.70
2023-04-12T16:05:53.426Z,0.90
2023-04-12T16:10:54.988Z,1.27
2023-04-12T16:15:58.372Z,0.80
2023-04-12T16:20:59.829Z,0.80
2023-04-12T16:26:01.662Z,0.70
2023-04-12T16:31:06.443Z,0.77
2023-04-12T16:36:07.990Z,0.90
2023-04-12T16:41:09.490Z,1.33
2023-04-12T16:46:13.998Z,1.10
2023-04-12T16:51:15.422Z,1.20
2023-04-12T16:56:17.315Z,1.17
2023-04-12T17:01:21.912Z,0.60
2023-04-12T17:06:23.302Z,0.90
2023-04-12T17:11:27.152Z,0.80
2023-04-12T17:16:29.061Z,1.00
2023-04-12T17:21:38.423Z,1.38
2023-04-12T17:26:42.585Z,0.90
2023-04-12T17:31:45.579Z,1.00
2023-04-12T17:36:49.159Z,0.88
2023-04-12T17:41:50.798Z,0.97
2023-04-12T17:46:52.104Z,1.60
2023-04-12T17:52:04.840Z,1.00
2023-04-12T17:57:06.223Z,1.80
2023-04-12T18:02:07.625Z,0.70
2023-04-12T18:07:14.851Z,1.20
2023-04-12T18:12:20.728Z,1.10
2023-04-12T18:17:23.308Z,1.13
2023-04-12T18:22:27.894Z,1.00
2023-04-12T18:27:29.219Z,1.00
2023-04-12T18:32:30.625Z,1.13
2023-04-12T18:37:32.025Z,1.20
2023-04-12T18:42:33.384Z,1.02
2023-04-12T18:47:34.841Z,1.40
2023-04-12T18:52:37.439Z,1.33
2023-04-12T18:57:38.788Z,1.10
2023-04-12T19:02:40.868Z,1.08
2023-04-12T19:07:42.335Z,1.30
2023-04-12T19:12:43.965Z,1.63
2023-04-12T19:17:45.304Z,2.58
2023-04-12T19:22:46.781Z,2.40
2023-04-12T19:27:48.192Z,1.90
2023-04-12T19:32:49.525Z,2.22
2023-04-12T19:37:54.560Z,2.70
2023-04-12T19:42:56.254Z,1.40
2023-04-12T19:47:57.624Z,0.60
2023-04-12T19:52:59.035Z,0.70
2023-04-12T19:58:00.628Z,0.60
2023-04-12T20:03:01.990Z,0.80
2023-04-12T20:08:03.831Z,1.10
2023-04-12T20:13:09.729Z,0.70
2023-04-12T20:18:12.904Z,0.70
2023-04-12T20:23:14.286Z,0.98
2023-04-12T20:28:15.677Z,0.80
2023-04-12T20:33:17.072Z,0.90
2023-04-12T20:38:18.509Z,0.80
2023-04-12T20:43:20.220Z,0.60
2023-04-12T20:48:21.898Z,0.80
2023-04-12T20:53:23.626Z,0.60
2023-04-12T20:58:24.906Z,0.70
2023-04-12T21:03:27.544Z,1.03
2023-04-12T21:08:30.846Z,0.45
2023-04-12T21:13:32.141Z,0.50
2023-04-12T21:18:34.396Z,0.73
2023-04-12T21:23:35.710Z,0.60
2023-04-12T21:28:38.391Z,0.90
2023-04-12T21:33:40.546Z,1.00
2023-04-12T21:38:42.203Z,0.60
2023-04-12T21:43:44.957Z,0.70
2023-04-12T21:48:46.288Z,0.70
2023-04-12T21:53:47.575Z,0.80
2023-04-12T21:58:49.044Z,1.05
2023-04-12T22:03:50.615Z,0.70
2023-04-12T22:08:52.074Z,1.37
2023-04-12T22:13:53.462Z,0.70
2023-04-12T22:18:55.552Z,0.90
2023-04-12T22:23:57.239Z,1.67
2023-04-12T22:28:58.734Z,1.15
2023-04-12T22:34:01.574Z,0.70
2023-04-12T22:39:03.718Z,0.73
2023-04-12T22:44:05.074Z,0.60
2023-04-12T22:49:07.181Z,0.60
2023-04-12T22:54:09.500Z,0.75
2023-04-12T22:59:12.147Z,0.70
2023-04-12T23:04:15.647Z,0.90
2023-04-12T23:09:16.951Z,0.50
2023-04-12T23:14:18.263Z,0.60
2023-04-12T23:19:20.268Z,0.60
2023-04-12T23:24:21.518Z,0.60
2023-04-12T23:29:25.515Z,0.60
2023-04-12T23:34:26.777Z,0.50
2023-04-12T23:39:28.503Z,0.60
2023-04-12T23:44:30.542Z,0.40
2023-04-12T23:49:31.819Z,0.40
2023-04-12T23:54:33.101Z,0.40
2023-04-12T23:59:34.397Z,0.50
